sensor_id;sensor_type;location;lat;lon;timestamp;P1;durP1;ratioP1;P2;durP2;ratioP2
9563;SDS011;4820;50.870;4.702;2023-04-19T00:00:40;20.40;;;18.45;;
9563;SDS011;4820;50.870;4.702;2023-04-19T00:03:07;20.98;;;18.67;;
9563;SDS011;4820;50.870;4.702;2023-04-19T00:05:34;20.60;;;18.60;;
9563;SDS011;4820;50.870;4.702;2023-04-19T00:08:02;20.77;;;18.67;;
9563;SDS011;4820;50.870;4.702;2023-04-19T00:10:29;20.80;;;18.70;;
9563;SDS011;4820;50.870;4.702;2023-04-19T00:12:54;20.40;;;18.50;;
9563;SDS011;4820;50.870;4.702;2023-04-19T00:15:20;20.65;;;18.65;;
9563;SDS011;4820;50.870;4.702;2023-04-19T00:17:46;20.80;;;18.63;;
9563;SDS011;4820;50.870;4.702;2023-04-19T00:20:11;19.63;;;17.73;;
9563;SDS011;4820;50.870;4.702;2023-04-19T00:22:37;20.42;;;18.42;;
9563;SDS011;4820;50.870;4.702;2023-04-19T00:25:03;21.52;;;19.52;;
9563;SDS011;4820;50.870;4.702;2023-04-19T00:27:29;20.35;;;18.35;;
9563;SDS011;4820;50.870;4.702;2023-04-19T00:29:55;19.48;;;17.58;;
9563;SDS011;4820;50.870;4.702;2023-04-19T00:32:24;20.73;;;18.73;;
9563;SDS011;4820;50.870;4.702;2023-04-19T00:34:50;21.05;;;19.05;;
9563;SDS011;4820;50.870;4.702;2023-04-19T00:37:15;19.75;;;17.92;;
9563;SDS011;4820;50.870;4.702;2023-04-19T00:39:41;20.20;;;18.08;;
9563;SDS011;4820;50.870;4.702;2023-04-19T00:42:07;21.45;;;19.35;;
9563;SDS011;4820;50.870;4.702;2023-04-19T00:44:33;21.73;;;19.63;;
9563;SDS011;4820;50.870;4.702;2023-04-19T00:46:58;21.08;;;18.88;;
9563;SDS011;4820;50.870;4.702;2023-04-19T00:49:26;20.52;;;18.58;;
9563;SDS011;4820;50.870;4.702;2023-04-19T00:51:53;21.27;;;19.20;;
9563;SDS011;4820;50.870;4.702;2023-04-19T00:54:19;21.73;;;19.63;;
9563;SDS011;4820;50.870;4.702;2023-04-19T00:56:45;21.40;;;19.27;;
9563;SDS011;4820;50.870;4.702;2023-04-19T00:59:11;22.05;;;19.85;;
9563;SDS011;4820;50.870;4.702;2023-04-19T01:01:39;21.08;;;18.98;;
9563;SDS011;4820;50.870;4.702;2023-04-19T01:04:05;21.05;;;19.05;;
9563;SDS011;4820;50.870;4.702;2023-04-19T01:06:33;20.48;;;18.58;;
9563;SDS011;4820;50.870;4.702;2023-04-19T01:09:00;20.88;;;18.92;;
9563;SDS011;4820;50.870;4.702;2023-04-19T01:11:26;20.55;;;18.65;;
9563;SDS011;4820;50.870;4.702;2023-04-19T01:13:53;20.63;;;18.73;;
9563;SDS011;4820;50.870;4.702;2023-04-19T01:16:19;21.50;;;19.42;;
9563;SDS011;4820;50.870;4.702;2023-04-19T01:18:45;19.70;;;17.80;;
9563;SDS011;4820;50.870;4.702;2023-04-19T01:21:11;21.35;;;19.17;;
9563;SDS011;4820;50.870;4.702;2023-04-19T01:23:36;20.80;;;18.80;;
9563;SDS011;4820;50.870;4.702;2023-04-19T01:26:05;21.83;;;19.73;;
9563;SDS011;4820;50.870;4.702;2023-04-19T01:28:31;20.02;;;18.08;;
9563;SDS011;4820;50.870;4.702;2023-04-19T01:30:57;19.95;;;18.05;;
9563;SDS011;4820;50.870;4.702;2023-04-19T01:33:23;20.15;;;18.30;;
9563;SDS011;4820;50.870;4.702;2023-04-19T01:35:48;19.95;;;17.95;;
9563;SDS011;4820;50.870;4.702;2023-04-19T01:38:14;19.25;;;17.42;;
9563;SDS011;4820;50.870;4.702;2023-04-19T01:40:41;21.52;;;19.33;;
9563;SDS011;4820;50.870;4.702;2023-04-19T01:43:06;20.63;;;18.60;;
9563;SDS011;4820;50.870;4.702;2023-04-19T01:45:32;20.10;;;18.20;;
9563;SDS011;4820;50.870;4.702;2023-04-19T01:48:00;21.10;;;18.95;;
9563;SDS011;4820;50.870;4.702;2023-04-19T01:50:30;19.65;;;17.73;;
9563;SDS011;4820;50.870;4.702;2023-04-19T01:52:56;19.67;;;17.88;;
9563;SDS011;4820;50.870;4.702;2023-04-19T01:55:22;19.95;;;17.90;;
9563;SDS011;4820;50.870;4.702;2023-04-19T01:57:48;19.00;;;17.20;;
9563;SDS011;4820;50.870;4.702;2023-04-19T02:00:13;20.17;;;18.10;;
9563;SDS011;4820;50.870;4.702;2023-04-19T02:02:42;19.63;;;17.63;;
9563;SDS011;4820;50.870;4.702;2023-04-19T02:05:08;19.73;;;17.77;;
9563;SDS011;4820;50.870;4.702;2023-04-19T02:07:34;18.20;;;16.50;;
9563;SDS011;4820;50.870;4.702;2023-04-19T02:10:00;19.75;;;17.75;;
9563;SDS011;4820;50.870;4.702;2023-04-19T02:12:26;18.75;;;16.85;;
9563;SDS011;4820;50.870;4.702;2023-04-19T02:14:55;18.90;;;17.10;;
9563;SDS011;4820;50.870;4.702;2023-04-19T02:17:22;18.83;;;16.85;;
9563;SDS011;4820;50.870;4.702;2023-04-19T02:19:48;18.63;;;16.85;;
9563;SDS011;4820;50.870;4.702;2023-04-19T02:22:13;17.80;;;16.17;;
9563;SDS011;4820;50.870;4.702;2023-04-19T02:24:39;18.80;;;16.90;;
9563;SDS011;4820;50.870;4.702;2023-04-19T02:27:05;17.00;;;15.40;;
9563;SDS011;4820;50.870;4.702;2023-04-19T02:29:31;18.60;;;16.90;;
9563;SDS011;4820;50.870;4.702;2023-04-19T02:31:57;17.58;;;15.88;;
9563;SDS011;4820;50.870;4.702;2023-04-19T02:34:23;18.10;;;16.40;;
9563;SDS011;4820;50.870;4.702;2023-04-19T02:36:49;18.67;;;16.88;;
9563;SDS011;4820;50.870;4.702;2023-04-19T02:39:15;17.80;;;16.17;;
9563;SDS011;4820;50.870;4.702;2023-04-19T02:41:41;17.98;;;16.08;;
9563;SDS011;4820;50.870;4.702;2023-04-19T02:44:07;17.70;;;16.00;;
9563;SDS011;4820;50.870;4.702;2023-04-19T02:46:32;18.02;;;16.33;;
9563;SDS011;4820;50.870;4.702;2023-04-19T02:49:01;17.73;;;16.02;;
9563;SDS011;4820;50.870;4.702;2023-04-19T02:51:27;17.15;;;15.57;;
9563;SDS011;4820;50.870;4.702;2023-04-19T02:53:53;16.50;;;14.98;;
9563;SDS011;4820;50.870;4.702;2023-04-19T02:56:19;17.17;;;15.57;;
9563;SDS011;4820;50.870;4.702;2023-04-19T02:58:46;17.42;;;15.73;;
9563;SDS011;4820;50.870;4.702;2023-04-19T03:01:11;16.75;;;15.15;;
9563;SDS011;4820;50.870;4.702;2023-04-19T03:03:37;17.30;;;15.60;;
9563;SDS011;4820;50.870;4.702;2023-04-19T03:06:03;17.00;;;15.43;;
9563;SDS011;4820;50.870;4.702;2023-04-19T03:08:28;17.00;;;15.38;;
9563;SDS011;4820;50.870;4.702;2023-04-19T03:10:54;17.33;;;15.63;;
9563;SDS011;4820;50.870;4.702;2023-04-19T03:13:20;16.98;;;15.48;;
9563;SDS011;4820;50.870;4.702;2023-04-19T03:15:45;16.73;;;15.20;;
9563;SDS011;4820;50.870;4.702;2023-04-19T03:18:12;17.08;;;15.38;;
9563;SDS011;4820;50.870;4.702;2023-04-19T03:20:37;17.80;;;16.00;;
9563;SDS011;4820;50.870;4.702;2023-04-19T03:23:03;17.70;;;15.93;;
9563;SDS011;4820;50.870;4.702;2023-04-19T03:25:29;16.77;;;15.15;;
9563;SDS011;4820;50.870;4.702;2023-04-19T03:27:55;16.80;;;15.20;;
9563;SDS011;4820;50.870;4.702;2023-04-19T03:30:20;16.77;;;15.18;;
9563;SDS011;4820;50.870;4.702;2023-04-19T03:32:46;16.70;;;15.13;;
9563;SDS011;4820;50.870;4.702;2023-04-19T03:35:12;17.30;;;15.70;;
9563;SDS011;4820;50.870;4.702;2023-04-19T03:37:38;17.38;;;15.77;;
9563;SDS011;4820;50.870;4.702;2023-04-19T03:40:04;18.33;;;16.60;;
9563;SDS011;4820;50.870;4.702;2023-04-19T03:42:30;17.55;;;15.82;;
9563;SDS011;4820;50.870;4.702;2023-04-19T03:44:56;17.60;;;15.93;;
9563;SDS011;4820;50.870;4.702;2023-04-19T03:47:22;18.35;;;16.55;;
9563;SDS011;4820;50.870;4.702;2023-04-19T03:49:48;17.85;;;16.02;;
9563;SDS011;4820;50.870;4.702;2023-04-19T03:52:14;17.70;;;15.90;;
9563;SDS011;4820;50.870;4.702;2023-04-19T03:54:39;17.35;;;15.75;;
9563;SDS011;4820;50.870;4.702;2023-04-19T03:57:05;17.55;;;15.85;;
9563;SDS011;4820;50.870;4.702;2023-04-19T03:59:31;18.30;;;16.50;;
9563;SDS011;4820;50.870;4.702;2023-04-19T04:01:56;18.05;;;16.17;;
9563;SDS011;4820;50.870;4.702;2023-04-19T04:04:22;18.27;;;16.48;;
9563;SDS011;4820;50.870;4.702;2023-04-19T04:06:47;18.02;;;16.15;;
9563;SDS011;4820;50.870;4.702;2023-04-19T04:09:13;17.75;;;16.05;;
9563;SDS011;4820;50.870;4.702;2023-04-19T04:11:39;17.23;;;15.52;;
9563;SDS011;4820;50.870;4.702;2023-04-19T04:14:05;18.85;;;17.02;;
9563;SDS011;4820;50.870;4.702;2023-04-19T04:16:31;17.30;;;15.60;;
9563;SDS011;4820;50.870;4.702;2023-04-19T04:18:56;18.08;;;16.30;;
9563;SDS011;4820;50.870;4.702;2023-04-19T04:21:22;17.52;;;15.82;;
9563;SDS011;4820;50.870;4.702;2023-04-19T04:23:49;18.02;;;16.27;;
9563;SDS011;4820;50.870;4.702;2023-04-19T04:26:14;17.25;;;15.55;;
9563;SDS011;4820;50.870;4.702;2023-04-19T04:28:40;18.77;;;16.88;;
9563;SDS011;4820;50.870;4.702;2023-04-19T04:31:06;18.13;;;15.82;;
9563;SDS011;4820;50.870;4.702;2023-04-19T04:33:32;18.80;;;17.00;;
9563;SDS011;4820;50.870;4.702;2023-04-19T04:35:57;17.83;;;15.88;;
9563;SDS011;4820;50.870;4.702;2023-04-19T04:38:23;19.02;;;16.50;;
9563;SDS011;4820;50.870;4.702;2023-04-19T04:40:50;18.48;;;16.52;;
9563;SDS011;4820;50.870;4.702;2023-04-19T04:43:24;18.70;;;16.83;;
9563;SDS011;4820;50.870;4.702;2023-04-19T04:45:53;18.73;;;16.73;;
9563;SDS011;4820;50.870;4.702;2023-04-19T04:48:19;19.08;;;17.08;;
9563;SDS011;4820;50.870;4.702;2023-04-19T04:50:45;18.90;;;16.90;;
9563;SDS011;4820;50.870;4.702;2023-04-19T04:53:11;17.95;;;16.25;;
9563;SDS011;4820;50.870;4.702;2023-04-19T04:55:36;19.13;;;17.13;;
9563;SDS011;4820;50.870;4.702;2023-04-19T04:58:02;18.33;;;16.42;;
9563;SDS011;4820;50.870;4.702;2023-04-19T05:00:29;19.17;;;17.13;;
9563;SDS011;4820;50.870;4.702;2023-04-19T05:02:56;18.92;;;17.02;;
9563;SDS011;4820;50.870;4.702;2023-04-19T05:05:22;19.27;;;17.38;;
9563;SDS011;4820;50.870;4.702;2023-04-19T05:07:47;20.23;;;18.27;;
9563;SDS011;4820;50.870;4.702;2023-04-19T05:10:13;20.42;;;18.10;;
9563;SDS011;4820;50.870;4.702;2023-04-19T05:12:39;19.70;;;17.70;;
9563;SDS011;4820;50.870;4.702;2023-04-19T05:15:06;20.73;;;18.63;;
9563;SDS011;4820;50.870;4.702;2023-04-19T05:17:32;20.80;;;18.60;;
9563;SDS011;4820;50.870;4.702;2023-04-19T05:19:57;19.42;;;17.40;;
9563;SDS011;4820;50.870;4.702;2023-04-19T05:22:23;19.50;;;17.50;;
9563;SDS011;4820;50.870;4.702;2023-04-19T05:24:49;21.27;;;19.17;;
9563;SDS011;4820;50.870;4.702;2023-04-19T05:27:15;21.08;;;18.95;;
9563;SDS011;4820;50.870;4.702;2023-04-19T05:29:41;20.00;;;18.00;;
9563;SDS011;4820;50.870;4.702;2023-04-19T05:32:06;20.30;;;18.25;;
9563;SDS011;4820;50.870;4.702;2023-04-19T05:34:32;21.50;;;19.27;;
9563;SDS011;4820;50.870;4.702;2023-04-19T05:36:58;20.50;;;18.40;;
9563;SDS011;4820;50.870;4.702;2023-04-19T05:39:24;20.30;;;18.27;;
9563;SDS011;4820;50.870;4.702;2023-04-19T05:41:50;20.67;;;18.55;;
9563;SDS011;4820;50.870;4.702;2023-04-19T05:44:16;20.25;;;18.20;;
9563;SDS011;4820;50.870;4.702;2023-04-19T05:46:41;20.52;;;18.42;;
9563;SDS011;4820;50.870;4.702;2023-04-19T05:49:07;20.10;;;17.70;;
9563;SDS011;4820;50.870;4.702;2023-04-19T05:51:33;20.98;;;18.70;;
9563;SDS011;4820;50.870;4.702;2023-04-19T05:53:59;19.90;;;17.90;;
9563;SDS011;4820;50.870;4.702;2023-04-19T05:56:25;19.75;;;17.73;;
9563;SDS011;4820;50.870;4.702;2023-04-19T05:58:51;21.92;;;18.48;;
9563;SDS011;4820;50.870;4.702;2023-04-19T06:01:16;21.38;;;18.75;;
9563;SDS011;4820;50.870;4.702;2023-04-19T06:03:42;21.48;;;18.67;;
9563;SDS011;4820;50.870;4.702;2023-04-19T06:06:08;24.33;;;20.10;;
9563;SDS011;4820;50.870;4.702;2023-04-19T06:08:34;20.20;;;18.13;;
9563;SDS011;4820;50.870;4.702;2023-04-19T06:11:00;20.05;;;17.88;;
9563;SDS011;4820;50.870;4.702;2023-04-19T06:13:26;20.55;;;18.23;;
9563;SDS011;4820;50.870;4.702;2023-04-19T06:15:51;19.40;;;17.35;;
9563;SDS011;4820;50.870;4.702;2023-04-19T06:18:17;19.48;;;16.85;;
9563;SDS011;4820;50.870;4.702;2023-04-19T06:20:43;19.52;;;16.70;;
9563;SDS011;4820;50.870;4.702;2023-04-19T06:23:09;21.30;;;17.85;;
9563;SDS011;4820;50.870;4.702;2023-04-19T06:25:36;18.85;;;16.75;;
9563;SDS011;4820;50.870;4.702;2023-04-19T06:28:02;19.23;;;17.20;;
9563;SDS011;4820;50.870;4.702;2023-04-19T06:30:28;22.25;;;17.08;;
9563;SDS011;4820;50.870;4.702;2023-04-19T06:32:54;18.13;;;16.23;;
9563;SDS011;4820;50.870;4.702;2023-04-19T06:35:20;26.92;;;23.33;;
9563;SDS011;4820;50.870;4.702;2023-04-19T06:37:46;25.55;;;21.42;;
9563;SDS011;4820;50.870;4.702;2023-04-19T06:40:11;18.75;;;16.75;;
9563;SDS011;4820;50.870;4.702;2023-04-19T06:42:37;18.98;;;15.95;;
9563;SDS011;4820;50.870;4.702;2023-04-19T06:45:03;20.08;;;16.08;;
9563;SDS011;4820;50.870;4.702;2023-04-19T06:47:29;17.70;;;16.00;;
9563;SDS011;4820;50.870;4.702;2023-04-19T06:49:55;17.55;;;15.52;;
9563;SDS011;4820;50.870;4.702;2023-04-19T06:52:22;18.17;;;16.13;;
9563;SDS011;4820;50.870;4.702;2023-04-19T06:54:54;20.95;;;15.13;;
9563;SDS011;4820;50.870;4.702;2023-04-19T06:57:20;16.85;;;14.77;;
9563;SDS011;4820;50.870;4.702;2023-04-19T06:59:45;18.63;;;15.57;;
9563;SDS011;4820;50.870;4.702;2023-04-19T07:02:11;19.27;;;16.30;;
9563;SDS011;4820;50.870;4.702;2023-04-19T07:04:36;19.88;;;16.23;;
9563;SDS011;4820;50.870;4.702;2023-04-19T07:07:02;17.45;;;14.95;;
9563;SDS011;4820;50.870;4.702;2023-04-19T07:09:28;17.60;;;15.88;;
9563;SDS011;4820;50.870;4.702;2023-04-19T07:11:54;19.00;;;15.65;;
9563;SDS011;4820;50.870;4.702;2023-04-19T07:14:19;17.70;;;15.27;;
9563;SDS011;4820;50.870;4.702;2023-04-19T07:16:46;16.63;;;14.80;;
9563;SDS011;4820;50.870;4.702;2023-04-19T07:19:12;16.98;;;15.27;;
9563;SDS011;4820;50.870;4.702;2023-04-19T07:21:38;16.80;;;15.15;;
9563;SDS011;4820;50.870;4.702;2023-04-19T07:24:04;16.63;;;14.73;;
9563;SDS011;4820;50.870;4.702;2023-04-19T07:26:30;17.48;;;14.60;;
9563;SDS011;4820;50.870;4.702;2023-04-19T07:28:57;19.45;;;15.18;;
9563;SDS011;4820;50.870;4.702;2023-04-19T07:31:23;16.90;;;15.07;;
9563;SDS011;4820;50.870;4.702;2023-04-19T07:33:50;17.85;;;15.07;;
9563;SDS011;4820;50.870;4.702;2023-04-19T07:36:16;16.45;;;14.30;;
9563;SDS011;4820;50.870;4.702;2023-04-19T07:38:42;15.55;;;13.95;;
9563;SDS011;4820;50.870;4.702;2023-04-19T07:41:08;15.88;;;13.55;;
9563;SDS011;4820;50.870;4.702;2023-04-19T07:43:34;16.55;;;13.70;;
9563;SDS011;4820;50.870;4.702;2023-04-19T07:46:00;15.57;;;13.07;;
9563;SDS011;4820;50.870;4.702;2023-04-19T07:48:27;15.73;;;13.98;;
9563;SDS011;4820;50.870;4.702;2023-04-19T07:50:52;15.63;;;14.07;;
9563;SDS011;4820;50.870;4.702;2023-04-19T07:53:18;14.15;;;12.65;;
9563;SDS011;4820;50.870;4.702;2023-04-19T07:55:44;23.33;;;19.92;;
9563;SDS011;4820;50.870;4.702;2023-04-19T07:58:10;15.63;;;13.45;;
9563;SDS011;4820;50.870;4.702;2023-04-19T08:00:36;13.80;;;12.40;;
9563;SDS011;4820;50.870;4.702;2023-04-19T08:03:02;14.07;;;12.68;;
9563;SDS011;4820;50.870;4.702;2023-04-19T08:05:27;13.43;;;12.10;;
9563;SDS011;4820;50.870;4.702;2023-04-19T08:07:54;18.25;;;12.77;;
9563;SDS011;4820;50.870;4.702;2023-04-19T08:10:20;17.55;;;13.27;;
9563;SDS011;4820;50.870;4.702;2023-04-19T08:12:47;21.48;;;12.65;;
9563;SDS011;4820;50.870;4.702;2023-04-19T08:15:15;14.35;;;12.85;;
9563;SDS011;4820;50.870;4.702;2023-04-19T08:17:41;13.23;;;11.90;;
9563;SDS011;4820;50.870;4.702;2023-04-19T08:20:08;13.55;;;12.25;;
9563;SDS011;4820;50.870;4.702;2023-04-19T08:22:35;14.02;;;12.13;;
9563;SDS011;4820;50.870;4.702;2023-04-19T08:25:03;13.80;;;12.40;;
9563;SDS011;4820;50.870;4.702;2023-04-19T08:27:30;14.77;;;13.18;;
9563;SDS011;4820;50.870;4.702;2023-04-19T08:29:56;15.13;;;12.98;;
9563;SDS011;4820;50.870;4.702;2023-04-19T08:32:22;13.75;;;12.00;;
9563;SDS011;4820;50.870;4.702;2023-04-19T08:34:48;14.75;;;13.25;;
9563;SDS011;4820;50.870;4.702;2023-04-19T08:37:14;14.68;;;13.07;;
9563;SDS011;4820;50.870;4.702;2023-04-19T08:39:40;14.50;;;13.00;;
9563;SDS011;4820;50.870;4.702;2023-04-19T08:42:06;13.60;;;12.20;;
9563;SDS011;4820;50.870;4.702;2023-04-19T08:44:34;13.40;;;12.10;;
9563;SDS011;4820;50.870;4.702;2023-04-19T08:47:02;14.55;;;11.98;;
9563;SDS011;4820;50.870;4.702;2023-04-19T08:49:29;12.60;;;11.45;;
9563;SDS011;4820;50.870;4.702;2023-04-19T08:51:58;12.80;;;11.50;;
9563;SDS011;4820;50.870;4.702;2023-04-19T08:54:25;13.63;;;11.65;;
9563;SDS011;4820;50.870;4.702;2023-04-19T08:56:53;13.05;;;11.82;;
9563;SDS011;4820;50.870;4.702;2023-04-19T08:59:18;12.55;;;11.23;;
9563;SDS011;4820;50.870;4.702;2023-04-19T09:01:44;13.20;;;11.88;;
9563;SDS011;4820;50.870;4.702;2023-04-19T09:04:10;13.60;;;12.30;;
9563;SDS011;4820;50.870;4.702;2023-04-19T09:06:36;12.85;;;11.60;;
9563;SDS011;4820;50.870;4.702;2023-04-19T09:11:45;12.18;;;10.20;;
9563;SDS011;4820;50.870;4.702;2023-04-19T09:14:12;12.98;;;11.68;;
9563;SDS011;4820;50.870;4.702;2023-04-19T09:16:39;12.88;;;11.48;;
9563;SDS011;4820;50.870;4.702;2023-04-19T09:19:05;12.25;;;11.07;;
9563;SDS011;4820;50.870;4.702;2023-04-19T09:21:33;11.18;;;10.07;;
9563;SDS011;4820;50.870;4.702;2023-04-19T09:23:59;11.75;;;10.07;;
9563;SDS011;4820;50.870;4.702;2023-04-19T09:26:26;11.52;;;10.27;;
9563;SDS011;4820;50.870;4.702;2023-04-19T09:29:06;10.77;;;9.73;;
9563;SDS011;4820;50.870;4.702;2023-04-19T09:31:35;11.63;;;10.43;;
9563;SDS011;4820;50.870;4.702;2023-04-19T09:34:12;11.43;;;10.05;;
9563;SDS011;4820;50.870;4.702;2023-04-19T09:36:39;11.07;;;9.60;;
9563;SDS011;4820;50.870;4.702;2023-04-19T09:39:05;11.20;;;10.10;;
9563;SDS011;4820;50.870;4.702;2023-04-19T09:41:31;10.85;;;9.73;;
9563;SDS011;4820;50.870;4.702;2023-04-19T09:44:10;10.63;;;9.52;;
9563;SDS011;4820;50.870;4.702;2023-04-19T09:46:39;9.70;;;8.60;;
9563;SDS011;4820;50.870;4.702;2023-04-19T09:51:39;8.80;;;7.90;;
9563;SDS011;4820;50.870;4.702;2023-04-19T09:54:07;9.07;;;7.43;;
9563;SDS011;4820;50.870;4.702;2023-04-19T09:56:34;8.70;;;7.90;;
9563;SDS011;4820;50.870;4.702;2023-04-19T09:59:04;8.35;;;7.55;;
9563;SDS011;4820;50.870;4.702;2023-04-19T10:01:37;8.93;;;7.53;;
9563;SDS011;4820;50.870;4.702;2023-04-19T10:04:05;8.65;;;7.72;;
9563;SDS011;4820;50.870;4.702;2023-04-19T10:06:31;11.68;;;7.20;;
9563;SDS011;4820;50.870;4.702;2023-04-19T10:08:59;8.57;;;7.68;;
9563;SDS011;4820;50.870;4.702;2023-04-19T10:11:33;8.60;;;7.75;;
9563;SDS011;4820;50.870;4.702;2023-04-19T10:14:07;9.23;;;7.55;;
9563;SDS011;4820;50.870;4.702;2023-04-19T10:16:34;10.85;;;9.75;;
9563;SDS011;4820;50.870;4.702;2023-04-19T10:19:02;9.75;;;8.75;;
9563;SDS011;4820;50.870;4.702;2023-04-19T10:21:30;9.23;;;7.35;;
9563;SDS011;4820;50.870;4.702;2023-04-19T10:23:57;8.48;;;6.43;;
9563;SDS011;4820;50.870;4.702;2023-04-19T10:26:23;7.55;;;6.90;;
9563;SDS011;4820;50.870;4.702;2023-04-19T10:28:53;8.52;;;6.80;;
9563;SDS011;4820;50.870;4.702;2023-04-19T10:31:20;7.60;;;6.90;;
9563;SDS011;4820;50.870;4.702;2023-04-19T10:33:47;6.85;;;6.25;;
9563;SDS011;4820;50.870;4.702;2023-04-19T10:36:14;7.68;;;6.85;;
9563;SDS011;4820;50.870;4.702;2023-04-19T10:41:11;8.27;;;7.25;;
9563;SDS011;4820;50.870;4.702;2023-04-19T10:43:38;9.75;;;6.45;;
9563;SDS011;4820;50.870;4.702;2023-04-19T10:46:05;7.90;;;7.10;;
9563;SDS011;4820;50.870;4.702;2023-04-19T10:51:12;8.38;;;7.63;;
9563;SDS011;4820;50.870;4.702;2023-04-19T10:56:55;9.05;;;7.50;;
9563;SDS011;4820;50.870;4.702;2023-04-19T10:59:34;8.05;;;7.25;;
9563;SDS011;4820;50.870;4.702;2023-04-19T11:02:02;7.72;;;6.93;;
9563;SDS011;4820;50.870;4.702;2023-04-19T11:04:57;8.30;;;7.50;;
9563;SDS011;4820;50.870;4.702;2023-04-19T11:07:24;7.43;;;6.80;;
9563;SDS011;4820;50.870;4.702;2023-04-19T11:09:50;7.85;;;7.15;;
9563;SDS011;4820;50.870;4.702;2023-04-19T11:12:17;10.52;;;7.30;;
9563;SDS011;4820;50.870;4.702;2023-04-19T11:14:47;8.85;;;7.95;;
9563;SDS011;4820;50.870;4.702;2023-04-19T11:25:18;8.68;;;7.75;;
9563;SDS011;4820;50.870;4.702;2023-04-19T11:27:46;7.35;;;6.53;;
9563;SDS011;4820;50.870;4.702;2023-04-19T11:30:18;8.65;;;7.75;;
9563;SDS011;4820;50.870;4.702;2023-04-19T11:32:52;10.65;;;8.55;;
9563;SDS011;4820;50.870;4.702;2023-04-19T11:35:23;13.38;;;7.80;;
9563;SDS011;4820;50.870;4.702;2023-04-19T11:37:49;8.75;;;7.82;;
9563;SDS011;4820;50.870;4.702;2023-04-19T11:40:17;11.82;;;7.68;;
9563;SDS011;4820;50.870;4.702;2023-04-19T11:42:44;30.60;;;8.43;;
9563;SDS011;4820;50.870;4.702;2023-04-19T11:45:11;8.85;;;8.02;;
9563;SDS011;4820;50.870;4.702;2023-04-19T11:47:49;13.40;;;7.60;;
9563;SDS011;4820;50.870;4.702;2023-04-19T11:53:10;10.80;;;7.78;;
9563;SDS011;4820;50.870;4.702;2023-04-19T11:55:50;21.50;;;8.07;;
9563;SDS011;4820;50.870;4.702;2023-04-19T11:58:35;7.47;;;6.78;;
9563;SDS011;4820;50.870;4.702;2023-04-19T12:01:04;8.52;;;6.93;;
9563;SDS011;4820;50.870;4.702;2023-04-19T12:03:49;7.32;;;6.63;;
9563;SDS011;4820;50.870;4.702;2023-04-19T12:06:26;13.02;;;7.38;;
9563;SDS011;4820;50.870;4.702;2023-04-19T12:08:58;10.05;;;6.70;;
9563;SDS011;4820;50.870;4.702;2023-04-19T12:11:24;9.13;;;6.30;;
9563;SDS011;4820;50.870;4.702;2023-04-19T12:14:10;11.45;;;6.15;;
9563;SDS011;4820;50.870;4.702;2023-04-19T12:16:36;9.13;;;6.03;;
9563;SDS011;4820;50.870;4.702;2023-04-19T12:19:12;12.30;;;6.32;;
9563;SDS011;4820;50.870;4.702;2023-04-19T12:21:39;14.82;;;6.50;;
9563;SDS011;4820;50.870;4.702;2023-04-19T12:24:05;7.57;;;5.50;;
9563;SDS011;4820;50.870;4.702;2023-04-19T12:26:32;7.05;;;5.50;;
9563;SDS011;4820;50.870;4.702;2023-04-19T12:28:58;6.57;;;4.93;;
9563;SDS011;4820;50.870;4.702;2023-04-19T12:31:25;6.65;;;5.20;;
9563;SDS011;4820;50.870;4.702;2023-04-19T12:33:51;6.82;;;5.88;;
9563;SDS011;4820;50.870;4.702;2023-04-19T12:36:17;8.27;;;5.30;;
9563;SDS011;4820;50.870;4.702;2023-04-19T12:38:43;8.43;;;5.35;;
9563;SDS011;4820;50.870;4.702;2023-04-19T12:41:09;14.30;;;5.05;;
9563;SDS011;4820;50.870;4.702;2023-04-19T12:43:35;6.25;;;4.80;;
9563;SDS011;4820;50.870;4.702;2023-04-19T12:46:00;7.15;;;5.03;;
9563;SDS011;4820;50.870;4.702;2023-04-19T12:48:26;8.40;;;6.00;;
9563;SDS011;4820;50.870;4.702;2023-04-19T12:50:52;11.60;;;9.30;;
9563;SDS011;4820;50.870;4.702;2023-04-19T12:53:18;6.00;;;4.25;;
9563;SDS011;4820;50.870;4.702;2023-04-19T12:55:45;5.80;;;3.67;;
9563;SDS011;4820;50.870;4.702;2023-04-19T12:58:17;11.30;;;3.80;;
9563;SDS011;4820;50.870;4.702;2023-04-19T13:00:45;5.97;;;3.63;;
9563;SDS011;4820;50.870;4.702;2023-04-19T13:03:11;4.53;;;3.30;;
9563;SDS011;4820;50.870;4.702;2023-04-19T13:05:37;10.23;;;3.85;;
9563;SDS011;4820;50.870;4.702;2023-04-19T13:08:03;5.90;;;3.83;;
9563;SDS011;4820;50.870;4.702;2023-04-19T13:10:29;7.43;;;4.55;;
9563;SDS011;4820;50.870;4.702;2023-04-19T13:12:55;7.90;;;4.60;;
9563;SDS011;4820;50.870;4.702;2023-04-19T13:15:23;7.45;;;5.28;;
9563;SDS011;4820;50.870;4.702;2023-04-19T13:17:49;6.70;;;4.85;;
9563;SDS011;4820;50.870;4.702;2023-04-19T13:20:14;5.03;;;4.53;;
9563;SDS011;4820;50.870;4.702;2023-04-19T13:22:41;6.47;;;4.90;;
9563;SDS011;4820;50.870;4.702;2023-04-19T13:25:07;6.20;;;4.68;;
9563;SDS011;4820;50.870;4.702;2023-04-19T13:27:33;6.40;;;4.38;;
9563;SDS011;4820;50.870;4.702;2023-04-19T13:29:58;8.90;;;8.00;;
9563;SDS011;4820;50.870;4.702;2023-04-19T13:32:24;4.80;;;4.05;;
9563;SDS011;4820;50.870;4.702;2023-04-19T13:34:50;6.55;;;3.85;;
9563;SDS011;4820;50.870;4.702;2023-04-19T13:37:16;6.05;;;3.50;;
9563;SDS011;4820;50.870;4.702;2023-04-19T13:39:42;7.43;;;3.45;;
9563;SDS011;4820;50.870;4.702;2023-04-19T13:42:07;5.93;;;3.10;;
9563;SDS011;4820;50.870;4.702;2023-04-19T13:44:33;10.65;;;3.15;;
9563;SDS011;4820;50.870;4.702;2023-04-19T13:46:59;5.75;;;3.10;;
9563;SDS011;4820;50.870;4.702;2023-04-19T13:49:25;4.70;;;3.00;;
9563;SDS011;4820;50.870;4.702;2023-04-19T13:51:50;4.32;;;2.90;;
9563;SDS011;4820;50.870;4.702;2023-04-19T13:54:17;5.70;;;3.00;;
9563;SDS011;4820;50.870;4.702;2023-04-19T13:56:43;3.15;;;2.85;;
9563;SDS011;4820;50.870;4.702;2023-04-19T13:59:08;4.43;;;2.58;;
9563;SDS011;4820;50.870;4.702;2023-04-19T14:01:34;3.55;;;2.67;;
9563;SDS011;4820;50.870;4.702;2023-04-19T14:04:01;3.40;;;2.65;;
9563;SDS011;4820;50.870;4.702;2023-04-19T14:06:26;7.15;;;3.05;;
9563;SDS011;4820;50.870;4.702;2023-04-19T14:08:52;7.55;;;2.83;;
9563;SDS011;4820;50.870;4.702;2023-04-19T14:11:18;3.55;;;2.35;;
9563;SDS011;4820;50.870;4.702;2023-04-19T14:13:44;6.45;;;2.95;;
9563;SDS011;4820;50.870;4.702;2023-04-19T14:16:09;4.95;;;2.40;;
9563;SDS011;4820;50.870;4.702;2023-04-19T14:18:35;4.28;;;2.83;;
9563;SDS011;4820;50.870;4.702;2023-04-19T14:21:00;3.50;;;2.40;;
9563;SDS011;4820;50.870;4.702;2023-04-19T14:23:26;7.00;;;3.10;;
9563;SDS011;4820;50.870;4.702;2023-04-19T14:25:52;3.97;;;2.50;;
9563;SDS011;4820;50.870;4.702;2023-04-19T14:28:18;4.85;;;2.40;;
9563;SDS011;4820;50.870;4.702;2023-04-19T14:30:43;4.78;;;2.28;;
9563;SDS011;4820;50.870;4.702;2023-04-19T14:33:09;4.47;;;2.50;;
9563;SDS011;4820;50.870;4.702;2023-04-19T14:35:35;4.55;;;2.60;;
9563;SDS011;4820;50.870;4.702;2023-04-19T14:38:00;4.63;;;2.72;;
9563;SDS011;4820;50.870;4.702;2023-04-19T14:40:26;7.38;;;2.83;;
9563;SDS011;4820;50.870;4.702;2023-04-19T14:42:52;6.50;;;2.72;;
9563;SDS011;4820;50.870;4.702;2023-04-19T14:45:18;4.80;;;2.72;;
9563;SDS011;4820;50.870;4.702;2023-04-19T14:47:44;9.82;;;3.10;;
9563;SDS011;4820;50.870;4.702;2023-04-19T14:50:10;15.63;;;3.60;;
9563;SDS011;4820;50.870;4.702;2023-04-19T14:52:35;7.22;;;2.72;;
9563;SDS011;4820;50.870;4.702;2023-04-19T14:55:01;5.97;;;2.90;;
9563;SDS011;4820;50.870;4.702;2023-04-19T14:57:27;8.02;;;3.88;;
9563;SDS011;4820;50.870;4.702;2023-04-19T14:59:53;11.88;;;3.30;;
9563;SDS011;4820;50.870;4.702;2023-04-19T15:02:23;2.63;;;2.42;;
9563;SDS011;4820;50.870;4.702;2023-04-19T15:04:49;3.28;;;2.58;;
9563;SDS011;4820;50.870;4.702;2023-04-19T15:07:16;7.05;;;2.67;;
9563;SDS011;4820;50.870;4.702;2023-04-19T15:09:42;5.28;;;2.30;;
9563;SDS011;4820;50.870;4.702;2023-04-19T15:12:07;3.03;;;2.30;;
9563;SDS011;4820;50.870;4.702;2023-04-19T15:14:33;5.28;;;2.45;;
9563;SDS011;4820;50.870;4.702;2023-04-19T15:16:59;5.85;;;2.47;;